sensor_id;sensor_type;location;lat;lon;timestamp;P1;durP1;ratioP1;P2;durP2;ratioP2
75297;SDS011;63896;45.990;18.688;2023-07-09T00:02:29;10.65;;;6.10;;
75297;SDS011;63896;45.990;18.688;2023-07-09T00:05:32;7.95;;;5.93;;
75297;SDS011;63896;45.990;18.688;2023-07-09T00:08:34;13.20;;;6.10;;
75297;SDS011;63896;45.990;18.688;2023-07-09T00:11:41;9.25;;;6.20;;
75297;SDS011;63896;45.990;18.688;2023-07-09T00:14:45;10.52;;;5.95;;
75297;SDS011;63896;45.990;18.688;2023-07-09T00:17:48;9.05;;;6.38;;
75297;SDS011;63896;45.990;18.688;2023-07-09T00:20:51;6.80;;;5.68;;
75297;SDS011;63896;45.990;18.688;2023-07-09T00:23:57;10.07;;;6.30;;
75297;SDS011;63896;45.990;18.688;2023-07-09T00:27:25;10.15;;;6.45;;
75297;SDS011;63896;45.990;18.688;2023-07-09T00:30:31;8.60;;;6.38;;
75297;SDS011;63896;45.990;18.688;2023-07-09T00:33:34;10.48;;;6.20;;
75297;SDS011;63896;45.990;18.688;2023-07-09T00:36:37;11.75;;;6.30;;
75297;SDS011;63896;45.990;18.688;2023-07-09T00:39:47;9.63;;;5.93;;
75297;SDS011;63896;45.990;18.688;2023-07-09T00:42:52;12.40;;;6.63;;
75297;SDS011;63896;45.990;18.688;2023-07-09T00:49:31;11.07;;;6.30;;
75297;SDS011;63896;45.990;18.688;2023-07-09T00:52:38;9.13;;;6.75;;
75297;SDS011;63896;45.990;18.688;2023-07-09T00:55:50;12.27;;;7.03;;
75297;SDS011;63896;45.990;18.688;2023-07-09T00:59:05;9.82;;;6.95;;
75297;SDS011;63896;45.990;18.688;2023-07-09T01:02:11;12.40;;;7.70;;
75297;SDS011;63896;45.990;18.688;2023-07-09T01:05:15;10.43;;;7.05;;
75297;SDS011;63896;45.990;18.688;2023-07-09T01:08:22;10.07;;;6.65;;
75297;SDS011;63896;45.990;18.688;2023-07-09T01:11:26;10.27;;;7.00;;
75297;SDS011;63896;45.990;18.688;2023-07-09T01:14:29;13.00;;;7.63;;
75297;SDS011;63896;45.990;18.688;2023-07-09T01:17:33;14.48;;;7.75;;
75297;SDS011;63896;45.990;18.688;2023-07-09T01:20:38;10.23;;;7.68;;
75297;SDS011;63896;45.990;18.688;2023-07-09T01:23:41;12.52;;;7.72;;
75297;SDS011;63896;45.990;18.688;2023-07-09T01:26:50;12.57;;;7.67;;
75297;SDS011;63896;45.990;18.688;2023-07-09T01:29:54;12.38;;;6.97;;
75297;SDS011;63896;45.990;18.688;2023-07-09T01:32:59;10.57;;;6.35;;
75297;SDS011;63896;45.990;18.688;2023-07-09T01:36:03;8.48;;;6.85;;
75297;SDS011;63896;45.990;18.688;2023-07-09T01:39:07;8.95;;;5.93;;
75297;SDS011;63896;45.990;18.688;2023-07-09T01:42:10;11.27;;;6.30;;
75297;SDS011;63896;45.990;18.688;2023-07-09T01:45:14;9.57;;;6.20;;
75297;SDS011;63896;45.990;18.688;2023-07-09T01:48:18;12.98;;;5.82;;
75297;SDS011;63896;45.990;18.688;2023-07-09T01:51:22;8.88;;;6.30;;
75297;SDS011;63896;45.990;18.688;2023-07-09T01:54:30;8.48;;;6.10;;
75297;SDS011;63896;45.990;18.688;2023-07-09T01:57:34;9.17;;;5.70;;
75297;SDS011;63896;45.990;18.688;2023-07-09T02:00:37;10.02;;;5.60;;
75297;SDS011;63896;45.990;18.688;2023-07-09T02:03:42;8.23;;;6.30;;
75297;SDS011;63896;45.990;18.688;2023-07-09T02:06:45;9.00;;;5.95;;
75297;SDS011;63896;45.990;18.688;2023-07-09T02:09:48;9.70;;;6.00;;
75297;SDS011;63896;45.990;18.688;2023-07-09T02:12:51;7.00;;;6.07;;
75297;SDS011;63896;45.990;18.688;2023-07-09T02:15:54;14.10;;;5.93;;
75297;SDS011;63896;45.990;18.688;2023-07-09T02:18:57;8.05;;;5.70;;
75297;SDS011;63896;45.990;18.688;2023-07-09T02:22:00;8.90;;;6.28;;
75297;SDS011;63896;45.990;18.688;2023-07-09T02:25:04;8.30;;;6.60;;
75297;SDS011;63896;45.990;18.688;2023-07-09T02:28:11;9.80;;;6.87;;
75297;SDS011;63896;45.990;18.688;2023-07-09T02:31:14;12.73;;;6.47;;
75297;SDS011;63896;45.990;18.688;2023-07-09T02:34:19;9.48;;;6.40;;
75297;SDS011;63896;45.990;18.688;2023-07-09T02:37:23;9.45;;;6.70;;
75297;SDS011;63896;45.990;18.688;2023-07-09T02:40:28;11.38;;;7.38;;
75297;SDS011;63896;45.990;18.688;2023-07-09T02:43:31;10.13;;;7.07;;
75297;SDS011;63896;45.990;18.688;2023-07-09T02:46:34;12.82;;;7.57;;
75297;SDS011;63896;45.990;18.688;2023-07-09T02:49:38;12.63;;;8.02;;
75297;SDS011;63896;45.990;18.688;2023-07-09T02:52:41;15.23;;;7.50;;
75297;SDS011;63896;45.990;18.688;2023-07-09T02:55:47;10.35;;;7.00;;
75297;SDS011;63896;45.990;18.688;2023-07-09T02:58:50;8.90;;;6.90;;
75297;SDS011;63896;45.990;18.688;2023-07-09T03:01:53;11.43;;;7.43;;
75297;SDS011;63896;45.990;18.688;2023-07-09T03:04:56;12.18;;;7.40;;
75297;SDS011;63896;45.990;18.688;2023-07-09T03:07:59;10.98;;;6.97;;
75297;SDS011;63896;45.990;18.688;2023-07-09T03:11:11;10.07;;;6.90;;
75297;SDS011;63896;45.990;18.688;2023-07-09T03:14:15;8.43;;;6.70;;
75297;SDS011;63896;45.990;18.688;2023-07-09T03:17:18;8.48;;;7.00;;
75297;SDS011;63896;45.990;18.688;2023-07-09T03:20:21;8.48;;;6.53;;
75297;SDS011;63896;45.990;18.688;2023-07-09T03:23:24;10.02;;;6.78;;
75297;SDS011;63896;45.990;18.688;2023-07-09T03:26:27;11.68;;;6.78;;
75297;SDS011;63896;45.990;18.688;2023-07-09T03:29:30;12.10;;;6.40;;
75297;SDS011;63896;45.990;18.688;2023-07-09T03:32:33;8.90;;;6.95;;
75297;SDS011;63896;45.990;18.688;2023-07-09T03:35:37;11.90;;;6.78;;
75297;SDS011;63896;45.990;18.688;2023-07-09T03:38:43;12.27;;;7.57;;
75297;SDS011;63896;45.990;18.688;2023-07-09T03:41:46;11.13;;;7.07;;
75297;SDS011;63896;45.990;18.688;2023-07-09T03:44:48;12.90;;;7.40;;
75297;SDS011;63896;45.990;18.688;2023-07-09T03:47:51;11.23;;;6.72;;
75297;SDS011;63896;45.990;18.688;2023-07-09T03:50:54;10.00;;;6.50;;
75297;SDS011;63896;45.990;18.688;2023-07-09T03:53:57;16.98;;;6.70;;
75297;SDS011;63896;45.990;18.688;2023-07-09T03:57:00;9.48;;;6.60;;
75297;SDS011;63896;45.990;18.688;2023-07-09T04:00:03;11.53;;;6.37;;
75297;SDS011;63896;45.990;18.688;2023-07-09T04:03:16;9.50;;;6.25;;
75297;SDS011;63896;45.990;18.688;2023-07-09T04:06:19;11.88;;;6.20;;
75297;SDS011;63896;45.990;18.688;2023-07-09T04:09:22;12.57;;;7.13;;
75297;SDS011;63896;45.990;18.688;2023-07-09T04:12:25;12.35;;;6.40;;
75297;SDS011;63896;45.990;18.688;2023-07-09T04:15:27;11.47;;;6.17;;
75297;SDS011;63896;45.990;18.688;2023-07-09T04:18:30;10.27;;;6.47;;
75297;SDS011;63896;45.990;18.688;2023-07-09T04:21:33;9.50;;;6.45;;
75297;SDS011;63896;45.990;18.688;2023-07-09T04:24:36;8.15;;;6.22;;
75297;SDS011;63896;45.990;18.688;2023-07-09T04:27:39;9.63;;;6.35;;
75297;SDS011;63896;45.990;18.688;2023-07-09T04:30:46;9.33;;;6.60;;
75297;SDS011;63896;45.990;18.688;2023-07-09T04:33:50;10.77;;;6.60;;
75297;SDS011;63896;45.990;18.688;2023-07-09T04:36:55;10.85;;;6.90;;
75297;SDS011;63896;45.990;18.688;2023-07-09T04:39:57;11.55;;;6.65;;
75297;SDS011;63896;45.990;18.688;2023-07-09T04:43:00;9.07;;;6.78;;
75297;SDS011;63896;45.990;18.688;2023-07-09T04:46:03;8.73;;;6.80;;
75297;SDS011;63896;45.990;18.688;2023-07-09T04:49:06;12.13;;;6.68;;
75297;SDS011;63896;45.990;18.688;2023-07-09T04:52:09;10.63;;;6.90;;
75297;SDS011;63896;45.990;18.688;2023-07-09T04:55:13;11.80;;;7.05;;
75297;SDS011;63896;45.990;18.688;2023-07-09T04:58:16;10.43;;;6.93;;
75297;SDS011;63896;45.990;18.688;2023-07-09T05:01:20;12.37;;;6.87;;
75297;SDS011;63896;45.990;18.688;2023-07-09T05:04:23;9.68;;;6.82;;
75297;SDS011;63896;45.990;18.688;2023-07-09T05:07:26;9.00;;;6.32;;
75297;SDS011;63896;45.990;18.688;2023-07-09T05:10:29;9.10;;;6.60;;
75297;SDS011;63896;45.990;18.688;2023-07-09T05:13:32;7.88;;;5.65;;
75297;SDS011;63896;45.990;18.688;2023-07-09T05:16:35;7.10;;;4.73;;
75297;SDS011;63896;45.990;18.688;2023-07-09T05:19:38;6.55;;;4.60;;
75297;SDS011;63896;45.990;18.688;2023-07-09T05:22:41;9.05;;;4.50;;
75297;SDS011;63896;45.990;18.688;2023-07-09T05:25:44;7.50;;;5.13;;
75297;SDS011;63896;45.990;18.688;2023-07-09T05:28:46;7.00;;;4.75;;
75297;SDS011;63896;45.990;18.688;2023-07-09T05:31:49;5.47;;;4.47;;
75297;SDS011;63896;45.990;18.688;2023-07-09T05:34:52;8.35;;;4.43;;
75297;SDS011;63896;45.990;18.688;2023-07-09T05:37:55;6.25;;;4.78;;
75297;SDS011;63896;45.990;18.688;2023-07-09T05:41:02;8.18;;;4.70;;
75297;SDS011;63896;45.990;18.688;2023-07-09T05:44:06;5.97;;;4.78;;
75297;SDS011;63896;45.990;18.688;2023-07-09T05:47:09;8.83;;;4.60;;
75297;SDS011;63896;45.990;18.688;2023-07-09T05:50:12;8.98;;;4.63;;
75297;SDS011;63896;45.990;18.688;2023-07-09T05:53:14;7.18;;;4.78;;
75297;SDS011;63896;45.990;18.688;2023-07-09T05:56:17;7.82;;;4.22;;
75297;SDS011;63896;45.990;18.688;2023-07-09T05:59:20;9.00;;;4.47;;
75297;SDS011;63896;45.990;18.688;2023-07-09T06:02:23;7.43;;;4.60;;
75297;SDS011;63896;45.990;18.688;2023-07-09T06:05:27;6.53;;;4.68;;
75297;SDS011;63896;45.990;18.688;2023-07-09T06:08:31;6.38;;;4.68;;
75297;SDS011;63896;45.990;18.688;2023-07-09T06:11:35;9.25;;;4.93;;
75297;SDS011;63896;45.990;18.688;2023-07-09T06:14:38;9.32;;;4.90;;
75297;SDS011;63896;45.990;18.688;2023-07-09T06:17:40;11.70;;;4.77;;
75297;SDS011;63896;45.990;18.688;2023-07-09T06:20:51;6.43;;;4.47;;
75297;SDS011;63896;45.990;18.688;2023-07-09T06:23:55;7.35;;;4.70;;
75297;SDS011;63896;45.990;18.688;2023-07-09T06:26:57;8.43;;;5.20;;
75297;SDS011;63896;45.990;18.688;2023-07-09T06:30:01;8.10;;;4.97;;
75297;SDS011;63896;45.990;18.688;2023-07-09T06:33:04;8.27;;;3.30;;
75297;SDS011;63896;45.990;18.688;2023-07-09T06:36:08;7.65;;;3.70;;
75297;SDS011;63896;45.990;18.688;2023-07-09T06:39:11;4.85;;;3.83;;
75297;SDS011;63896;45.990;18.688;2023-07-09T06:42:14;4.57;;;3.70;;
75297;SDS011;63896;45.990;18.688;2023-07-09T06:45:38;9.00;;;3.78;;
75297;SDS011;63896;45.990;18.688;2023-07-09T06:48:45;6.43;;;3.43;;
75297;SDS011;63896;45.990;18.688;2023-07-09T06:51:57;9.02;;;3.95;;
75297;SDS011;63896;45.990;18.688;2023-07-09T06:55:00;6.30;;;3.47;;
75297;SDS011;63896;45.990;18.688;2023-07-09T06:58:03;4.75;;;3.50;;
75297;SDS011;63896;45.990;18.688;2023-07-09T07:01:05;4.78;;;3.42;;
75297;SDS011;63896;45.990;18.688;2023-07-09T07:04:08;9.13;;;3.93;;
75297;SDS011;63896;45.990;18.688;2023-07-09T07:07:11;7.97;;;3.50;;
75297;SDS011;63896;45.990;18.688;2023-07-09T07:10:14;8.18;;;3.58;;
75297;SDS011;63896;45.990;18.688;2023-07-09T07:13:17;5.03;;;3.60;;
75297;SDS011;63896;45.990;18.688;2023-07-09T07:16:20;6.90;;;2.83;;
75297;SDS011;63896;45.990;18.688;2023-07-09T07:19:23;4.73;;;3.23;;
75297;SDS011;63896;45.990;18.688;2023-07-09T07:22:27;9.32;;;2.67;;
75297;SDS011;63896;45.990;18.688;2023-07-09T07:25:31;6.00;;;2.95;;
75297;SDS011;63896;45.990;18.688;2023-07-09T07:28:35;7.80;;;2.80;;
75297;SDS011;63896;45.990;18.688;2023-07-09T07:31:38;5.50;;;3.25;;
75297;SDS011;63896;45.990;18.688;2023-07-09T07:34:41;6.43;;;3.20;;
75297;SDS011;63896;45.990;18.688;2023-07-09T07:37:44;5.55;;;2.83;;
75297;SDS011;63896;45.990;18.688;2023-07-09T07:40:47;7.93;;;2.80;;
75297;SDS011;63896;45.990;18.688;2023-07-09T07:43:50;8.48;;;2.97;;
75297;SDS011;63896;45.990;18.688;2023-07-09T07:46:53;10.05;;;3.10;;
75297;SDS011;63896;45.990;18.688;2023-07-09T07:49:56;10.97;;;3.07;;
75297;SDS011;63896;45.990;18.688;2023-07-09T07:53:01;9.70;;;2.90;;
75297;SDS011;63896;45.990;18.688;2023-07-09T07:56:04;4.43;;;2.70;;
75297;SDS011;63896;45.990;18.688;2023-07-09T07:59:08;4.65;;;2.90;;
75297;SDS011;63896;45.990;18.688;2023-07-09T08:02:11;6.75;;;3.00;;
75297;SDS011;63896;45.990;18.688;2023-07-09T08:05:16;7.50;;;3.03;;
75297;SDS011;63896;45.990;18.688;2023-07-09T08:08:19;5.80;;;2.60;;
75297;SDS011;63896;45.990;18.688;2023-07-09T08:11:22;7.47;;;2.97;;
75297;SDS011;63896;45.990;18.688;2023-07-09T08:14:25;5.63;;;2.60;;
75297;SDS011;63896;45.990;18.688;2023-07-09T08:17:27;5.25;;;2.70;;
75297;SDS011;63896;45.990;18.688;2023-07-09T08:20:31;9.90;;;2.80;;
75297;SDS011;63896;45.990;18.688;2023-07-09T08:23:35;3.28;;;2.25;;
75297;SDS011;63896;45.990;18.688;2023-07-09T08:26:38;7.60;;;2.45;;
75297;SDS011;63896;45.990;18.688;2023-07-09T08:29:41;5.32;;;2.40;;
75297;SDS011;63896;45.990;18.688;2023-07-09T08:32:44;4.68;;;2.38;;
75297;SDS011;63896;45.990;18.688;2023-07-09T08:35:51;3.20;;;2.30;;
75297;SDS011;63896;45.990;18.688;2023-07-09T08:38:54;4.72;;;2.55;;
75297;SDS011;63896;45.990;18.688;2023-07-09T08:41:58;3.03;;;2.67;;
75297;SDS011;63896;45.990;18.688;2023-07-09T08:45:22;5.00;;;2.47;;
75297;SDS011;63896;45.990;18.688;2023-07-09T08:48:29;3.60;;;2.25;;
75297;SDS011;63896;45.990;18.688;2023-07-09T08:51:39;5.73;;;2.77;;
75297;SDS011;63896;45.990;18.688;2023-07-09T08:54:45;6.63;;;2.60;;
75297;SDS011;63896;45.990;18.688;2023-07-09T08:58:03;5.10;;;2.70;;
75297;SDS011;63896;45.990;18.688;2023-07-09T09:04:29;3.42;;;2.60;;
75297;SDS011;63896;45.990;18.688;2023-07-09T09:07:39;4.07;;;2.43;;
75297;SDS011;63896;45.990;18.688;2023-07-09T09:11:29;4.60;;;2.72;;
75297;SDS011;63896;45.990;18.688;2023-07-09T09:17:34;4.97;;;2.70;;
75297;SDS011;63896;45.990;18.688;2023-07-09T09:20:40;6.80;;;2.73;;
75297;SDS011;63896;45.990;18.688;2023-07-09T09:23:48;4.13;;;2.43;;
75297;SDS011;63896;45.990;18.688;2023-07-09T09:26:54;5.60;;;2.53;;
75297;SDS011;63896;45.990;18.688;2023-07-09T09:30:01;4.50;;;2.50;;
75297;SDS011;63896;45.990;18.688;2023-07-09T09:33:07;4.80;;;2.20;;
75297;SDS011;63896;45.990;18.688;2023-07-09T09:36:24;4.00;;;2.57;;
75297;SDS011;63896;45.990;18.688;2023-07-09T09:39:29;3.37;;;2.47;;
75297;SDS011;63896;45.990;18.688;2023-07-09T09:42:32;4.97;;;2.17;;
75297;SDS011;63896;45.990;18.688;2023-07-09T09:45:35;2.70;;;2.25;;
75297;SDS011;63896;45.990;18.688;2023-07-09T09:48:44;4.88;;;2.28;;
75297;SDS011;63896;45.990;18.688;2023-07-09T09:51:47;2.50;;;2.30;;
75297;SDS011;63896;45.990;18.688;2023-07-09T09:54:55;3.53;;;2.40;;
75297;SDS011;63896;45.990;18.688;2023-07-09T09:58:16;2.80;;;2.25;;
75297;SDS011;63896;45.990;18.688;2023-07-09T10:01:21;3.65;;;2.53;;
75297;SDS011;63896;45.990;18.688;2023-07-09T10:04:28;2.25;;;1.95;;
75297;SDS011;63896;45.990;18.688;2023-07-09T10:07:33;3.73;;;2.00;;
75297;SDS011;63896;45.990;18.688;2023-07-09T10:10:39;4.00;;;2.50;;
75297;SDS011;63896;45.990;18.688;2023-07-09T10:13:46;4.15;;;2.55;;
75297;SDS011;63896;45.990;18.688;2023-07-09T10:16:52;3.45;;;2.20;;
75297;SDS011;63896;45.990;18.688;2023-07-09T10:33:42;2.70;;;1.92;;
75297;SDS011;63896;45.990;18.688;2023-07-09T10:39:34;3.05;;;1.73;;
75297;SDS011;63896;45.990;18.688;2023-07-09T10:42:45;2.40;;;1.40;;
75297;SDS011;63896;45.990;18.688;2023-07-09T10:45:54;5.82;;;1.50;;
75297;SDS011;63896;45.990;18.688;2023-07-09T10:49:01;1.90;;;1.50;;
75297;SDS011;63896;45.990;18.688;2023-07-09T10:52:13;1.60;;;1.50;;
75297;SDS011;63896;45.990;18.688;2023-07-09T11:02:32;1.98;;;1.70;;
75297;SDS011;63896;45.990;18.688;2023-07-09T11:05:38;2.00;;;1.70;;
75297;SDS011;63896;45.990;18.688;2023-07-09T11:08:42;3.28;;;1.70;;
75297;SDS011;63896;45.990;18.688;2023-07-09T11:11:47;4.90;;;1.95;;
75297;SDS011;63896;45.990;18.688;2023-07-09T11:18:22;3.28;;;1.95;;
75297;SDS011;63896;45.990;18.688;2023-07-09T11:21:26;2.78;;;2.00;;
75297;SDS011;63896;45.990;18.688;2023-07-09T11:24:33;4.45;;;2.17;;
75297;SDS011;63896;45.990;18.688;2023-07-09T11:27:54;2.23;;;2.03;;
75297;SDS011;63896;45.990;18.688;2023-07-09T11:31:06;2.90;;;2.00;;
75297;SDS011;63896;45.990;18.688;2023-07-09T11:37:17;4.25;;;1.95;;
75297;SDS011;63896;45.990;18.688;2023-07-09T11:40:21;3.55;;;2.30;;
75297;SDS011;63896;45.990;18.688;2023-07-09T11:43:26;3.92;;;2.40;;
75297;SDS011;63896;45.990;18.688;2023-07-09T11:46:31;2.97;;;1.93;;
75297;SDS011;63896;45.990;18.688;2023-07-09T11:49:51;2.30;;;1.90;;
75297;SDS011;63896;45.990;18.688;2023-07-09T11:52:59;1.80;;;1.70;;
75297;SDS011;63896;45.990;18.688;2023-07-09T11:56:07;2.58;;;2.13;;
75297;SDS011;63896;45.990;18.688;2023-07-09T11:59:11;4.05;;;2.33;;
75297;SDS011;63896;45.990;18.688;2023-07-09T12:02:18;3.23;;;1.80;;
75297;SDS011;63896;45.990;18.688;2023-07-09T12:05:27;2.20;;;2.00;;
75297;SDS011;63896;45.990;18.688;2023-07-09T12:08:38;5.35;;;2.30;;
75297;SDS011;63896;45.990;18.688;2023-07-09T12:11:43;4.93;;;2.30;;
75297;SDS011;63896;45.990;18.688;2023-07-09T12:14:48;3.42;;;2.05;;
75297;SDS011;63896;45.990;18.688;2023-07-09T12:17:55;3.70;;;2.30;;
75297;SDS011;63896;45.990;18.688;2023-07-09T12:21:00;3.97;;;2.25;;
75297;SDS011;63896;45.990;18.688;2023-07-09T12:24:13;4.50;;;2.20;;
75297;SDS011;63896;45.990;18.688;2023-07-09T12:27:19;3.47;;;2.00;;
75297;SDS011;63896;45.990;18.688;2023-07-09T12:30:28;7.75;;;2.40;;
75297;SDS011;63896;45.990;18.688;2023-07-09T12:33:35;4.63;;;2.47;;
75297;SDS011;63896;45.990;18.688;2023-07-09T12:36:38;5.38;;;2.15;;
75297;SDS011;63896;45.990;18.688;2023-07-09T12:39:43;3.90;;;2.40;;
75297;SDS011;63896;45.990;18.688;2023-07-09T12:42:46;5.57;;;2.25;;
75297;SDS011;63896;45.990;18.688;2023-07-09T12:45:50;2.97;;;2.40;;
75297;SDS011;63896;45.990;18.688;2023-07-09T12:48:54;4.73;;;2.17;;
75297;SDS011;63896;45.990;18.688;2023-07-09T12:51:58;4.88;;;2.35;;
75297;SDS011;63896;45.990;18.688;2023-07-09T12:55:03;7.20;;;2.35;;
75297;SDS011;63896;45.990;18.688;2023-07-09T12:58:18;4.25;;;1.95;;
75297;SDS011;63896;45.990;18.688;2023-07-09T13:01:23;2.20;;;2.00;;
75297;SDS011;63896;45.990;18.688;2023-07-09T13:04:31;2.80;;;2.50;;
75297;SDS011;63896;45.990;18.688;2023-07-09T13:07:38;2.78;;;2.03;;
75297;SDS011;63896;45.990;18.688;2023-07-09T13:10:43;3.45;;;2.33;;
75297;SDS011;63896;45.990;18.688;2023-07-09T13:13:59;5.00;;;2.30;;
75297;SDS011;63896;45.990;18.688;2023-07-09T13:17:05;10.15;;;2.40;;
75297;SDS011;63896;45.990;18.688;2023-07-09T13:20:11;4.63;;;2.20;;
75297;SDS011;63896;45.990;18.688;2023-07-09T13:23:15;6.05;;;2.00;;
75297;SDS011;63896;45.990;18.688;2023-07-09T13:26:23;4.85;;;2.10;;
75297;SDS011;63896;45.990;18.688;2023-07-09T13:29:26;7.22;;;1.90;;
75297;SDS011;63896;45.990;18.688;2023-07-09T13:32:29;3.72;;;1.90;;
75297;SDS011;63896;45.990;18.688;2023-07-09T13:35:32;4.17;;;2.20;;
75297;SDS011;63896;45.990;18.688;2023-07-09T13:38:35;2.85;;;2.00;;
75297;SDS011;63896;45.990;18.688;2023-07-09T13:41:38;5.13;;;2.20;;
75297;SDS011;63896;45.990;18.688;2023-07-09T13:44:42;5.13;;;2.22;;
75297;SDS011;63896;45.990;18.688;2023-07-09T13:47:46;9.73;;;2.05;;
75297;SDS011;63896;45.990;18.688;2023-07-09T13:50:50;7.03;;;1.90;;
75297;SDS011;63896;45.990;18.688;2023-07-09T13:53:55;5.63;;;2.15;;
75297;SDS011;63896;45.990;18.688;2023-07-09T13:57:00;3.70;;;2.40;;
75297;SDS011;63896;45.990;18.688;2023-07-09T14:00:03;3.92;;;2.20;;
75297;SDS011;63896;45.990;18.688;2023-07-09T14:03:18;5.15;;;2.30;;
75297;SDS011;63896;45.990;18.688;2023-07-09T14:06:24;3.13;;;2.40;;
75297;SDS011;63896;45.990;18.688;2023-07-09T14:09:26;4.18;;;2.30;;
75297;SDS011;63896;45.990;18.688;2023-07-09T14:12:29;10.60;;;2.70;;
75297;SDS011;63896;45.990;18.688;2023-07-09T14:15:33;6.43;;;2.63;;
75297;SDS011;63896;45.990;18.688;2023-07-09T14:18:36;7.15;;;2.38;;
75297;SDS011;63896;45.990;18.688;2023-07-09T14:21:39;3.23;;;2.30;;
75297;SDS011;63896;45.990;18.688;2023-07-09T14:24:42;5.68;;;2.17;;
75297;SDS011;63896;45.990;18.688;2023-07-09T14:27:45;4.32;;;2.58;;
75297;SDS011;63896;45.990;18.688;2023-07-09T14:30:49;4.68;;;2.38;;
75297;SDS011;63896;45.990;18.688;2023-07-09T14:33:53;5.80;;;2.47;;
75297;SDS011;63896;45.990;18.688;2023-07-09T14:36:58;6.03;;;2.40;;
75297;SDS011;63896;45.990;18.688;2023-07-09T14:40:02;4.13;;;2.40;;
75297;SDS011;63896;45.990;18.688;2023-07-09T14:43:08;4.32;;;2.53;;
75297;SDS011;63896;45.990;18.688;2023-07-09T14:46:13;10.23;;;2.50;;
75297;SDS011;63896;45.990;18.688;2023-07-09T14:49:16;4.90;;;2.28;;
75297;SDS011;63896;45.990;18.688;2023-07-09T14:52:20;7.30;;;2.40;;
75297;SDS011;63896;45.990;18.688;2023-07-09T14:55:24;3.13;;;2.17;;
75297;SDS011;63896;45.990;18.688;2023-07-09T14:58:27;5.70;;;2.20;;
75297;SDS011;63896;45.990;18.688;2023-07-09T15:01:29;8.10;;;2.60;;
75297;SDS011;63896;45.990;18.688;2023-07-09T15:04:33;5.78;;;2.70;;
75297;SDS011;63896;45.990;18.688;2023-07-09T15:07:36;6.63;;;2.40;;
75297;SDS011;63896;45.990;18.688;2023-07-09T15:10:39;6.63;;;2.13;;
75297;SDS011;63896;45.990;18.688;2023-07-09T15:13:43;4.20;;;2.08;;
75297;SDS011;63896;45.990;18.688;2023-07-09T15:16:46;6.60;;;2.38;;
75297;SDS011;63896;45.990;18.688;2023-07-09T15:19:50;9.60;;;2.80;;
75297;SDS011;63896;45.990;18.688;2023-07-09T15:22:53;4.57;;;2.40;;
75297;SDS011;63896;45.990;18.688;2023-07-09T15:25:58;4.00;;;2.70;;
75297;SDS011;63896;45.990;18.688;2023-07-09T15:29:01;4.53;;;2.25;;
75297;SDS011;63896;45.990;18.688;2023-07-09T15:32:04;7.68;;;2.70;;
75297;SDS011;63896;45.990;18.688;2023-07-09T15:35:07;3.55;;;2.50;;
75297;SDS011;63896;45.990;18.688;2023-07-09T15:38:21;3.50;;;2.80;;
75297;SDS011;63896;45.990;18.688;2023-07-09T15:41:29;3.60;;;2.65;;
75297;SDS011;63896;45.990;18.688;2023-07-09T15:44:33;5.00;;;2.83;;
75297;SDS011;63896;45.990;18.688;2023-07-09T15:47:36;4.38;;;2.80;;
75297;SDS011;63896;45.990;18.688;2023-07-09T15:50:38;7.03;;;3.05;;
75297;SDS011;63896;45.990;18.688;2023-07-09T15:53:41;4.03;;;3.00;;
75297;SDS011;63896;45.990;18.688;2023-07-09T15:56:46;5.50;;;3.10;;
75297;SDS011;63896;45.990;18.688;2023-07-09T15:59:51;7.35;;;2.92;;
75297;SDS011;63896;45.990;18.688;2023-07-09T16:02:54;4.97;;;3.08;;
75297;SDS011;63896;45.990;18.688;2023-07-09T16:06:20;6.13;;;3.15;;
75297;SDS011;63896;45.990;18.688;2023-07-09T16:09:23;9.50;;;2.80;;
75297;SDS011;63896;45.990;18.688;2023-07-09T16:12:26;11.05;;;2.60;;
75297;SDS011;63896;45.990;18.688;2023-07-09T16:15:32;5.70;;;2.92;;
75297;SDS011;63896;45.990;18.688;2023-07-09T16:18:34;4.30;;;3.00;;
75297;SDS011;63896;45.990;18.688;2023-07-09T16:21:37;6.45;;;2.90;;
75297;SDS011;63896;45.990;18.688;2023-07-09T16:24:40;3.23;;;2.50;;
75297;SDS011;63896;45.990;18.688;2023-07-09T16:27:43;4.40;;;3.00;;
75297;SDS011;63896;45.990;18.688;2023-07-09T16:30:47;3.75;;;2.85;;
75297;SDS011;63896;45.990;18.688;2023-07-09T16:33:53;3.55;;;3.20;;
75297;SDS011;63896;45.990;18.688;2023-07-09T16:36:56;3.20;;;2.60;;
75297;SDS011;63896;45.990;18.688;2023-07-09T16:39:59;4.53;;;2.97;;
75297;SDS011;63896;45.990;18.688;2023-07-09T16:43:04;3.78;;;2.70;;
75297;SDS011;63896;45.990;18.688;2023-07-09T16:46:22;4.15;;;2.90;;
75297;SDS011;63896;45.990;18.688;2023-07-09T16:49:36;3.90;;;2.67;;
75297;SDS011;63896;45.990;18.688;2023-07-09T16:52:42;4.43;;;2.78;;
75297;SDS011;63896;45.990;18.688;2023-07-09T16:55:46;9.03;;;2.87;;
75297;SDS011;63896;45.990;18.688;2023-07-09T16:58:50;3.22;;;2.75;;
75297;SDS011;63896;45.990;18.688;2023-07-09T17:01:53;6.25;;;2.80;;
75297;SDS011;63896;45.990;18.688;2023-07-09T17:04:57;5.25;;;2.80;;
75297;SDS011;63896;45.990;18.688;2023-07-09T17:08:02;6.40;;;3.15;;
75297;SDS011;63896;45.990;18.688;2023-07-09T17:11:04;8.37;;;3.10;;
75297;SDS011;63896;45.990;18.688;2023-07-09T17:14:14;7.57;;;3.08;;
75297;SDS011;63896;45.990;18.688;2023-07-09T17:17:19;8.55;;;2.80;;
75297;SDS011;63896;45.990;18.688;2023-07-09T17:20:24;3.25;;;2.35;;
75297;SDS011;63896;45.990;18.688;2023-07-09T17:23:29;5.00;;;2.35;;
75297;SDS011;63896;45.990;18.688;2023-07-09T17:26:32;8.47;;;2.30;;
75297;SDS011;63896;45.990;18.688;2023-07-09T17:29:35;5.90;;;2.50;;
75297;SDS011;63896;45.990;18.688;2023-07-09T17:32:38;6.18;;;2.53;;
75297;SDS011;63896;45.990;18.688;2023-07-09T17:35:41;10.65;;;2.40;;
75297;SDS011;63896;45.990;18.688;2023-07-09T17:38:46;4.63;;;2.47;;
75297;SDS011;63896;45.990;18.688;2023-07-09T17:41:50;8.77;;;2.53;;
75297;SDS011;63896;45.990;18.688;2023-07-09T17:44:54;7.13;;;2.25;;
75297;SDS011;63896;45.990;18.688;2023-07-09T17:47:57;7.10;;;2.60;;
75297;SDS011;63896;45.990;18.688;2023-07-09T17:51:00;6.53;;;2.50;;
75297;SDS011;63896;45.990;18.688;2023-07-09T17:54:07;6.20;;;2.45;;
75297;SDS011;63896;45.990;18.688;2023-07-09T17:57:23;6.13;;;2.60;;
75297;SDS011;63896;45.990;18.688;2023-07-09T18:00:28;5.82;;;2.10;;
75297;SDS011;63896;45.990;18.688;2023-07-09T18:03:31;6.28;;;2.60;;
75297;SDS011;63896;45.990;18.688;2023-07-09T18:06:35;8.90;;;2.53;;
75297;SDS011;63896;45.990;18.688;2023-07-09T18:09:37;9.07;;;2.45;;
75297;SDS011;63896;45.990;18.688;2023-07-09T18:12:40;4.87;;;2.50;;
75297;SDS011;63896;45.990;18.688;2023-07-09T18:15:43;8.75;;;2.80;;
75297;SDS011;63896;45.990;18.688;2023-07-09T18:18:47;7.20;;;3.00;;
75297;SDS011;63896;45.990;18.688;2023-07-09T18:21:50;4.78;;;2.60;;
75297;SDS011;63896;45.990;18.688;2023-07-09T18:24:55;6.97;;;2.67;;
75297;SDS011;63896;45.990;18.688;2023-07-09T18:27:59;17.60;;;7.83;;
75297;SDS011;63896;45.990;18.688;2023-07-09T18:31:03;52.33;;;24.70;;
75297;SDS011;63896;45.990;18.688;2023-07-09T18:34:19;47.63;;;23.80;;
75297;SDS011;63896;45.990;18.688;2023-07-09T18:37:21;40.47;;;19.15;;
75297;SDS011;63896;45.990;18.688;2023-07-09T18:40:26;16.95;;;8.38;;
75297;SDS011;63896;45.990;18.688;2023-07-09T18:43:30;15.67;;;6.60;;
75297;SDS011;63896;45.990;18.688;2023-07-09T18:46:34;10.82;;;5.45;;
75297;SDS011;63896;45.990;18.688;2023-07-09T18:49:37;9.43;;;3.65;;
75297;SDS011;63896;45.990;18.688;2023-07-09T18:52:40;9.68;;;3.45;;
75297;SDS011;63896;45.990;18.688;2023-07-09T18:55:43;10.70;;;3.15;;